createdAt,value
2018-08-10T00:01:46.357Z,71.72
2018-08-10T00:04:15.081Z,71.06
2018-08-10T00:06:43.630Z,71.50
2018-08-10T00:09:12.397Z,71.51
2018-08-10T00:11:41.567Z,71.55
2018-08-10T00:14:10.050Z,71.77
2018-08-10T00:16:38.513Z,71.56
2018-08-10T00:19:07.237Z,72.10
2018-08-10T00:21:35.753Z,71.79
2018-08-10T00:24:04.245Z,71.73
2018-08-10T00:26:33.030Z,72.24
2018-08-10T00:29:02.533Z,72.06
2018-08-10T00:31:31.380Z,71.99
2018-08-10T00:34:00.217Z,71.89
2018-08-10T00:36:28.705Z,72.35
2018-08-10T00:38:57.173Z,72.03
2018-08-10T00:41:26.693Z,71.96
2018-08-10T00:43:55.241Z,72.69
2018-08-10T00:46:23.694Z,72.05
2018-08-10T00:48:52.329Z,72.16
2018-08-10T00:51:20.798Z,72.28
2018-08-10T00:53:49.269Z,71.94
2018-08-10T00:56:17.961Z,71.76
2018-08-10T00:58:46.478Z,71.78
2018-08-10T01:01:14.958Z,71.77
2018-08-10T01:03:43.486Z,72.20
2018-08-10T01:06:12.242Z,72.18
2018-08-10T01:08:40.678Z,71.75
2018-08-10T01:11:09.585Z,71.83
2018-08-10T01:13:38.301Z,72.25
2018-08-10T01:16:06.753Z,71.99
2018-08-10T01:18:35.640Z,72.51
2018-08-10T01:21:04.386Z,72.40
2018-08-10T01:23:32.897Z,72.35
2018-08-10T01:26:01.749Z,72.47
2018-08-10T01:28:30.654Z,72.58
2018-08-10T01:30:59.155Z,72.75
2018-08-10T01:33:27.651Z,72.96
2018-08-10T01:35:56.117Z,73.00
2018-08-10T01:38:24.565Z,73.25
2018-08-10T01:40:53.501Z,73.36
2018-08-10T01:43:22.125Z,73.18
2018-08-10T01:45:50.575Z,73.74
2018-08-10T01:48:19.249Z,73.74
2018-08-10T01:50:47.723Z,73.72
2018-08-10T01:53:16.201Z,73.10
2018-08-10T01:55:44.749Z,73.09
2018-08-10T01:58:13.341Z,73.14
2018-08-10T02:00:41.904Z,73.40
2018-08-10T02:03:10.533Z,72.93
2018-08-10T02:05:39.017Z,73.14
2018-08-10T02:08:07.632Z,73.02
2018-08-10T02:10:43.037Z,73.39
2018-08-10T02:13:11.493Z,72.99
2018-08-10T02:15:40.277Z,73.04
2018-08-10T02:18:09.230Z,73.63
2018-08-10T02:20:37.694Z,73.72
2018-08-10T02:23:06.211Z,73.86
2018-08-10T02:25:35.071Z,73.59
2018-08-10T02:28:03.621Z,73.53
2018-08-10T02:31:06.339Z,73.95
2018-08-10T02:33:34.891Z,74.18
2018-08-10T02:36:03.469Z,74.07
2018-08-10T02:38:32.082Z,74.09
2018-08-10T02:41:00.541Z,74.29
2018-08-10T02:43:29.059Z,73.96
2018-08-10T02:45:57.725Z,74.40
2018-08-10T02:48:26.165Z,74.44
2018-08-10T02:50:55.241Z,74.08
2018-08-10T02:53:25.010Z,74.65
2018-08-10T02:55:53.497Z,74.97
2018-08-10T02:58:21.946Z,74.97
2018-08-10T03:00:50.593Z,74.65
2018-08-10T03:03:19.069Z,74.78
2018-08-10T03:05:47.538Z,74.84
2018-08-10T03:08:16.510Z,74.96
2018-08-10T03:10:44.966Z,75.50
2018-08-10T03:13:13.472Z,75.55
2018-08-10T03:15:42.206Z,75.26
2018-08-10T03:18:10.700Z,75.52
2018-08-10T03:20:39.151Z,75.70
2018-08-10T03:23:07.750Z,75.42
2018-08-10T03:25:36.213Z,75.37
2018-08-10T03:28:04.697Z,75.54
2018-08-10T03:30:33.473Z,75.65
2018-08-10T03:33:02.013Z,75.92
2018-08-10T03:35:30.509Z,75.86
2018-08-10T03:37:59.330Z,76.16
2018-08-10T03:40:27.811Z,76.17
2018-08-10T03:42:56.303Z,76.52
2018-08-10T03:45:25.381Z,76.58
2018-08-10T03:47:53.886Z,76.57
2018-08-10T03:50:22.345Z,76.18
2018-08-10T03:52:51.047Z,76.64
2018-08-10T03:55:19.492Z,76.76
2018-08-10T03:57:47.949Z,76.23
2018-08-10T04:00:16.866Z,76.32
2018-08-10T04:02:45.374Z,76.27
2018-08-10T04:05:13.926Z,76.44
2018-08-10T04:07:42.529Z,75.82
2018-08-10T04:10:11.245Z,75.57
2018-08-10T04:12:39.879Z,75.84
2018-08-10T04:15:11.734Z,75.50
2018-08-10T04:17:40.320Z,74.83
2018-08-10T04:20:09.088Z,74.65
2018-08-10T04:22:37.708Z,74.59
2018-08-10T04:25:06.539Z,74.45
2018-08-10T04:27:35.027Z,74.85
2018-08-10T04:30:03.749Z,74.07
2018-08-10T04:32:32.809Z,74.42
2018-08-10T04:35:01.300Z,73.96
2018-08-10T04:37:29.934Z,74.12
2018-08-10T04:39:58.562Z,74.13
2018-08-10T04:42:27.045Z,74.17
2018-08-10T04:44:55.901Z,73.56
2018-08-10T04:47:24.406Z,73.78
2018-08-10T04:49:52.877Z,73.43
2018-08-10T04:52:21.640Z,73.06
2018-08-10T04:54:50.316Z,73.01
2018-08-10T04:57:18.773Z,73.12
2018-08-10T04:59:47.251Z,73.10
2018-08-10T05:02:15.723Z,73.07
2018-08-10T05:04:44.169Z,73.49
2018-08-10T05:07:12.660Z,73.23
2018-08-10T05:09:41.117Z,73.38
2018-08-10T05:12:09.577Z,73.19
2018-08-10T05:14:38.261Z,73.08
2018-08-10T05:17:06.793Z,72.50
2018-08-10T05:19:35.565Z,72.58
2018-08-10T05:22:04.649Z,72.56
2018-08-10T05:24:33.099Z,72.76
2018-08-10T05:27:01.865Z,72.54
2018-08-10T05:29:30.643Z,71.91
2018-08-10T05:31:59.074Z,71.60
2018-08-10T05:34:27.729Z,72.01
2018-08-10T05:36:56.525Z,72.02
2018-08-10T05:39:24.970Z,71.46
2018-08-10T05:41:53.469Z,71.32
2018-08-10T05:44:22.181Z,71.73
2018-08-10T05:46:50.621Z,71.67
2018-08-10T05:49:19.149Z,71.61
2018-08-10T05:51:48.043Z,71.71
2018-08-10T05:54:16.509Z,71.34
2018-08-10T05:56:45.177Z,71.43
2018-08-10T05:59:14.532Z,71.65
2018-08-10T06:01:43.249Z,71.81
2018-08-10T06:04:11.993Z,71.77
2018-08-10T06:06:40.666Z,72.63
2018-08-10T06:09:13.057Z,72.45
2018-08-10T06:11:42.307Z,73.00
2018-08-10T06:14:10.869Z,73.15
2018-08-10T06:16:39.345Z,73.60
2018-08-10T06:19:08.410Z,73.20
2018-08-10T06:21:37.386Z,73.30
2018-08-10T06:24:06.111Z,73.48
2018-08-10T06:26:35.138Z,73.06
2018-08-10T06:29:03.657Z,73.37
2018-08-10T06:31:32.199Z,73.33
2018-08-10T06:34:01.296Z,73.10
2018-08-10T06:36:29.647Z,72.84
2018-08-10T06:38:58.106Z,73.17
2018-08-10T06:41:27.185Z,73.96
2018-08-10T06:43:55.673Z,73.66
2018-08-10T06:46:24.119Z,74.09
2018-08-10T06:48:53.006Z,74.02
2018-08-10T06:51:21.577Z,74.69
2018-08-10T06:53:49.969Z,74.71
2018-08-10T06:56:18.649Z,74.44
2018-08-10T06:58:47.120Z,74.97
2018-08-10T07:01:15.546Z,75.03
2018-08-10T07:03:44.733Z,75.19
2018-08-10T07:06:13.245Z,74.76
2018-08-10T07:08:41.705Z,75.07
2018-08-10T07:11:10.806Z,75.12
2018-08-10T07:13:39.284Z,75.15
2018-08-10T07:16:07.798Z,75.14
2018-08-10T07:18:36.513Z,75.00
2018-08-10T07:21:04.986Z,75.28
2018-08-10T07:23:33.879Z,75.25
2018-08-10T07:26:02.565Z,75.16
2018-08-10T07:28:30.996Z,74.56
2018-08-10T07:30:59.536Z,74.96
2018-08-10T07:33:28.415Z,74.18
2018-08-10T07:35:56.864Z,73.98
2018-08-10T07:38:25.386Z,74.57
2018-08-10T07:40:54.269Z,74.17
2018-08-10T07:43:22.822Z,73.35
2018-08-10T07:45:51.289Z,72.95
2018-08-10T07:48:20.138Z,73.09
2018-08-10T07:50:48.569Z,72.56
2018-08-10T07:53:17.014Z,71.33
2018-08-10T07:55:46.177Z,71.20
2018-08-10T07:58:14.689Z,71.29
2018-08-10T08:00:43.408Z,70.83
2018-08-10T08:03:12.385Z,70.65
2018-08-10T08:05:41.534Z,70.14
2018-08-10T08:08:10.006Z,70.31
2018-08-10T08:10:38.910Z,70.18
2018-08-10T08:13:07.776Z,69.45
2018-08-10T08:15:36.219Z,68.79
2018-08-10T08:18:05.380Z,67.56
2018-08-10T08:20:33.773Z,65.71
2018-08-10T08:23:04.574Z,65.63
2018-08-10T08:25:33.730Z,64.59
2018-08-10T08:28:02.260Z,63.04
2018-08-10T08:30:30.938Z,60.07
2018-08-10T08:32:59.599Z,58.96
2018-08-10T08:35:28.077Z,58.36
2018-08-10T08:38:06.833Z,58.32
2018-08-10T08:40:35.333Z,56.95
2018-08-10T08:43:03.871Z,55.86
2018-08-10T08:45:42.566Z,55.29
2018-08-10T08:48:11.453Z,54.21
2018-08-10T08:50:41.802Z,53.96
2018-08-10T08:53:10.545Z,52.60
2018-08-10T08:55:43.933Z,51.69
2018-08-10T08:58:12.845Z,51.04
2018-08-10T09:00:41.737Z,50.63
2018-08-10T09:05:17.666Z,50.59
2018-08-10T09:07:46.231Z,50.80
2018-08-10T09:10:16.390Z,50.50
2018-08-10T09:12:45.352Z,51.14
2018-08-10T09:15:15.314Z,51.91
2018-08-10T09:17:43.923Z,51.89
2018-08-10T09:20:12.650Z,51.82
2018-08-10T09:22:41.118Z,50.95
2018-08-10T09:25:14.193Z,51.80
2018-08-10T09:27:43.137Z,52.15
2018-08-10T09:30:13.537Z,51.47
2018-08-10T09:32:42.415Z,52.27
2018-08-10T09:35:11.798Z,52.54
2018-08-10T09:37:40.318Z,51.85
2018-08-10T09:40:11.805Z,52.25
2018-08-10T09:42:41.348Z,52.79
2018-08-10T09:45:17.143Z,53.38
2018-08-10T09:47:46.781Z,53.21
2018-08-10T09:50:16.124Z,51.36
2018-08-10T09:52:52.306Z,50.48
2018-08-10T09:55:22.161Z,50.18
2018-08-10T09:57:52.242Z,50.22
2018-08-10T10:00:25.996Z,49.19
2018-08-10T10:03:00.526Z,49.01
2018-08-10T10:05:29.109Z,48.07
2018-08-10T10:07:57.557Z,47.14
2018-08-10T10:10:26.177Z,48.17
2018-08-10T10:12:55.110Z,47.11
2018-08-10T10:15:23.836Z,47.32
2018-08-10T10:17:52.506Z,47.21
2018-08-10T10:20:21.514Z,46.37
2018-08-10T10:22:50.374Z,46.55
2018-08-10T10:25:19.313Z,46.13
2018-08-10T10:27:48.252Z,45.92
2018-08-10T10:30:16.758Z,45.27
2018-08-10T10:32:45.507Z,44.88
2018-08-10T10:35:14.069Z,43.95
2018-08-10T10:37:42.733Z,44.52
2018-08-10T10:40:12.061Z,43.70
2018-08-10T10:42:40.885Z,44.08
2018-08-10T10:45:11.542Z,43.76
2018-08-10T10:47:40.386Z,43.16
2018-08-10T10:50:09.785Z,43.58
2018-08-10T10:52:38.850Z,44.04
2018-08-10T10:55:08.153Z,43.54
2018-08-10T10:57:36.730Z,44.15
2018-08-10T11:00:07.807Z,45.89
2018-08-10T11:02:36.632Z,44.74
2018-08-10T11:05:06.152Z,45.19
2018-08-10T11:07:34.627Z,43.85
2018-08-10T11:10:03.080Z,43.23
2018-08-10T11:12:31.670Z,43.59
2018-08-10T11:15:00.202Z,42.09
2018-08-10T11:17:28.711Z,42.85
2018-08-10T11:19:57.662Z,42.95
2018-08-10T11:22:26.130Z,42.92
2018-08-10T11:24:54.562Z,42.78
2018-08-10T11:27:23.485Z,43.70
2018-08-10T11:29:52.341Z,43.51
2018-08-10T11:32:20.813Z,43.59
2018-08-10T11:34:49.429Z,42.24
2018-08-10T11:37:17.948Z,42.40
2018-08-10T11:39:46.398Z,42.53
2018-08-10T11:42:14.917Z,43.72
2018-08-10T11:44:43.405Z,44.13
2018-08-10T11:47:11.847Z,44.64
2018-08-10T11:49:40.279Z,44.37
2018-08-10T11:52:08.843Z,44.14
2018-08-10T11:54:37.299Z,44.00
2018-08-10T11:57:06.377Z,44.54
2018-08-10T11:59:34.873Z,44.62
2018-08-10T12:02:03.447Z,42.64
2018-08-10T12:04:31.889Z,42.24
2018-08-10T12:07:00.661Z,42.74
2018-08-10T12:09:29.097Z,42.46
2018-08-10T12:11:57.534Z,42.51
2018-08-10T12:14:26.197Z,43.32
2018-08-10T12:16:54.667Z,43.10
2018-08-10T12:19:23.323Z,43.55
2018-08-10T12:21:51.821Z,42.37
2018-08-10T12:24:20.333Z,42.39
2018-08-10T12:26:49.073Z,42.54
2018-08-10T12:29:17.608Z,40.77
2018-08-10T12:31:46.307Z,40.13
2018-08-10T12:34:15.538Z,40.27
2018-08-10T12:36:44.373Z,40.28
2018-08-10T12:39:14.305Z,39.48
2018-08-10T12:41:43.128Z,38.82
2018-08-10T12:44:12.073Z,39.55
2018-08-10T12:46:40.595Z,37.20
2018-08-10T12:49:09.574Z,37.46
2018-08-10T12:51:38.289Z,38.01
2018-08-10T12:54:06.930Z,38.32
2018-08-10T12:56:35.469Z,37.96
2018-08-10T12:59:03.964Z,38.15
2018-08-10T13:01:32.401Z,38.35
2018-08-10T13:04:00.993Z,38.35
2018-08-10T13:06:29.504Z,38.22
2018-08-10T13:08:58.090Z,37.28
2018-08-10T13:11:27.037Z,37.34
2018-08-10T13:13:55.486Z,37.45
2018-08-10T13:16:23.939Z,37.12
2018-08-10T13:18:52.509Z,37.49
2018-08-10T13:21:20.977Z,38.03
2018-08-10T13:23:49.449Z,38.34
2018-08-10T13:26:18.094Z,38.40
2018-08-10T13:28:47.163Z,38.82
2018-08-10T13:31:15.614Z,39.24
2018-08-10T13:33:44.466Z,38.64
2018-08-10T13:36:13.008Z,38.98
2018-08-10T13:38:41.587Z,40.19
2018-08-10T13:41:10.683Z,40.78
2018-08-10T13:43:39.288Z,42.40
2018-08-10T13:46:07.877Z,43.19
2018-08-10T13:48:36.460Z,44.08
2018-08-10T13:51:05.189Z,44.58
2018-08-10T13:53:33.686Z,44.52
2018-08-10T13:56:03.013Z,45.27
2018-08-10T13:58:31.621Z,45.53
2018-08-10T14:01:00.078Z,42.49
2018-08-10T14:03:28.613Z,39.08
2018-08-10T14:05:57.246Z,37.79
2018-08-10T14:08:25.637Z,37.66
2018-08-10T14:10:54.237Z,35.02
2018-08-10T14:13:22.841Z,34.29
2018-08-10T14:15:51.333Z,33.94
2018-08-10T14:18:20.221Z,33.97
2018-08-10T14:20:48.938Z,33.39
2018-08-10T14:23:17.549Z,33.26
2018-08-10T14:25:46.101Z,33.21
2018-08-10T14:28:14.595Z,33.66
2018-08-10T14:30:43.193Z,33.78
2018-08-10T14:33:12.145Z,34.33
2018-08-10T14:35:40.805Z,34.48
2018-08-10T14:38:09.242Z,34.86
2018-08-10T14:40:37.672Z,35.08
2018-08-10T14:43:06.317Z,35.60
2018-08-10T14:45:34.880Z,35.45
2018-08-10T14:48:03.545Z,35.31
2018-08-10T14:50:32.992Z,35.74
2018-08-10T14:53:03.753Z,36.00
2018-08-10T14:55:33.398Z,35.33
2018-08-10T14:58:03.682Z,34.81
2018-08-10T15:00:32.278Z,34.86
2018-08-10T15:03:01.873Z,34.31
2018-08-10T15:05:30.412Z,35.14
2018-08-10T15:07:59.901Z,36.13
2018-08-10T15:10:28.433Z,36.59
2018-08-10T15:12:57.457Z,37.27
2018-08-10T15:15:25.757Z,37.33
2018-08-10T15:17:54.328Z,38.01
2018-08-10T15:20:22.803Z,37.67
2018-08-10T15:22:51.304Z,37.54
2018-08-10T15:25:19.814Z,37.42
2018-08-10T15:27:48.336Z,37.04
2018-08-10T15:30:18.337Z,37.57
2018-08-10T15:32:47.071Z,38.39
2018-08-10T15:35:16.797Z,37.57
2018-08-10T15:37:45.725Z,37.76
2018-08-10T15:40:16.384Z,38.46
2018-08-10T15:42:45.066Z,38.78
2018-08-10T15:45:14.713Z,38.20
2018-08-10T15:47:44.093Z,37.95
2018-08-10T15:50:12.906Z,37.50
2018-08-10T15:52:42.625Z,37.57
2018-08-10T15:55:12.034Z,38.01
2018-08-10T15:57:40.959Z,37.38
2018-08-10T16:00:25.813Z,36.84
2018-08-10T16:02:54.265Z,35.55
2018-08-10T16:05:22.781Z,35.92
2018-08-10T16:07:51.705Z,36.44
2018-08-10T16:10:20.229Z,35.43
2018-08-10T16:12:48.770Z,35.76
2018-08-10T16:15:18.428Z,35.14
2018-08-10T16:17:46.957Z,34.92
2018-08-10T16:20:17.820Z,34.09
2018-08-10T16:22:46.500Z,34.50
2018-08-10T16:25:15.466Z,34.90
2018-08-10T16:27:44.489Z,35.37
2018-08-10T16:30:14.717Z,34.76
2018-08-10T16:32:44.253Z,35.23
2018-08-10T16:35:14.003Z,35.44
2018-08-10T16:37:43.881Z,34.91
2018-08-10T16:40:14.264Z,35.80
2018-08-10T16:42:43.151Z,35.90
2018-08-10T16:45:12.165Z,35.82
2018-08-10T16:47:40.969Z,35.80
2018-08-10T16:50:13.127Z,35.81
2018-08-10T16:52:42.512Z,36.15
2018-08-10T16:55:13.610Z,36.25
2018-08-10T16:57:42.873Z,36.25
2018-08-10T17:00:16.200Z,36.03
2018-08-10T17:02:45.148Z,36.50
2018-08-10T17:05:13.658Z,36.60
2018-08-10T17:07:42.458Z,36.68
2018-08-10T17:10:11.369Z,37.21
2018-08-10T17:12:41.129Z,37.74
2018-08-10T17:15:12.753Z,38.02
2018-08-10T17:17:42.066Z,37.72
2018-08-10T17:20:11.125Z,36.92
2018-08-10T17:22:39.845Z,37.26
2018-08-10T17:25:09.546Z,37.47
2018-08-10T17:27:38.190Z,37.42
2018-08-10T17:30:08.730Z,37.16
2018-08-10T17:32:37.377Z,38.00
2018-08-10T17:35:06.869Z,37.59
2018-08-10T17:37:36.802Z,38.38
2018-08-10T17:40:06.119Z,38.87
2018-08-10T17:42:34.800Z,38.88
2018-08-10T17:45:03.985Z,39.15
2018-08-10T17:47:32.485Z,39.44
2018-08-10T17:50:00.952Z,39.85
2018-08-10T17:52:29.498Z,40.58
2018-08-10T17:54:57.957Z,41.28
2018-08-10T17:57:26.413Z,41.12
2018-08-10T17:59:55.666Z,41.99
2018-08-10T18:02:24.164Z,42.20
2018-08-10T18:04:52.612Z,42.20
2018-08-10T18:07:22.401Z,42.80
2018-08-10T18:09:50.899Z,41.83
2018-08-10T18:12:19.345Z,40.17
2018-08-10T18:17:15.791Z,39.98
2018-08-10T18:19:44.385Z,40.59
2018-08-10T18:22:13.274Z,39.93
2018-08-10T18:24:41.736Z,40.13
2018-08-10T18:27:10.160Z,40.35
2018-08-10T18:29:38.746Z,41.05
2018-08-10T18:32:07.394Z,40.66
2018-08-10T18:34:35.861Z,41.22
2018-08-10T18:37:04.641Z,41.16
2018-08-10T18:39:33.166Z,41.45
2018-08-10T18:42:01.650Z,41.58
2018-08-10T18:44:30.710Z,41.62
2018-08-10T18:46:59.165Z,41.67
2018-08-10T18:49:27.606Z,41.60
2018-08-10T18:51:56.272Z,41.67
2018-08-10T18:54:24.925Z,41.80
2018-08-10T18:56:53.373Z,42.19
2018-08-10T18:59:22.188Z,42.32
2018-08-10T19:01:50.665Z,42.47
2018-08-10T19:04:19.394Z,42.54
2018-08-10T19:06:48.129Z,42.64
2018-08-10T19:09:16.585Z,42.68
2018-08-10T19:11:45.070Z,42.57
2018-08-10T19:14:14.110Z,43.03
2018-08-10T19:16:42.573Z,42.89
2018-08-10T19:19:11.038Z,43.38
2018-08-10T19:21:40.472Z,43.27
2018-08-10T19:24:08.985Z,43.34
2018-08-10T19:26:37.489Z,44.02
2018-08-10T19:29:06.162Z,43.81
2018-08-10T19:31:34.638Z,44.13
2018-08-10T19:34:03.126Z,44.26
2018-08-10T19:36:32.721Z,44.02
2018-08-10T19:39:01.642Z,44.45
2018-08-10T19:41:30.473Z,44.87
2018-08-10T19:43:59.074Z,44.66
2018-08-10T19:46:27.700Z,44.83
2018-08-10T19:48:56.291Z,44.85
2018-08-10T19:51:25.205Z,44.94
2018-08-10T19:53:53.849Z,44.70
2018-08-10T19:56:22.650Z,45.13
2018-08-10T19:58:51.297Z,44.69
2018-08-10T20:01:19.781Z,44.83
2018-08-10T20:03:51.539Z,45.10
2018-08-10T20:06:20.633Z,45.37
2018-08-10T20:08:49.095Z,45.32
2018-08-10T20:11:17.573Z,45.67
2018-08-10T20:13:46.240Z,45.19
2018-08-10T20:16:14.723Z,45.51
2018-08-10T20:18:43.256Z,45.78
2018-08-10T20:21:12.025Z,45.58
2018-08-10T20:23:40.805Z,46.06
2018-08-10T20:26:09.293Z,45.83
2018-08-10T20:28:38.967Z,46.24
2018-08-10T20:31:07.499Z,45.88
2018-08-10T20:33:35.952Z,46.64
2018-08-10T20:36:04.753Z,46.45
2018-08-10T20:38:33.209Z,46.81
2018-08-10T20:41:01.702Z,46.13
2018-08-10T20:43:30.493Z,45.70
2018-08-10T20:45:58.957Z,45.67
2018-08-10T20:48:27.744Z,45.83
2018-08-10T20:50:56.557Z,45.58
2018-08-10T20:53:24.995Z,45.21
2018-08-10T20:55:53.480Z,45.07
2018-08-10T20:58:22.297Z,45.67
2018-08-10T21:00:50.735Z,45.24
2018-08-10T21:03:19.198Z,45.51
2018-08-10T21:05:47.781Z,44.45
2018-08-10T21:08:16.305Z,44.58
2018-08-10T21:10:44.710Z,44.88
2018-08-10T21:13:13.353Z,44.22
2018-08-10T21:15:41.800Z,44.38
2018-08-10T21:18:10.223Z,44.94
2018-08-10T21:20:38.882Z,44.67
2018-08-10T21:23:07.350Z,45.09
2018-08-10T21:25:35.984Z,45.36
2018-08-10T21:28:04.685Z,45.46
2018-08-10T21:30:33.130Z,45.48
2018-08-10T21:33:02.433Z,45.74
2018-08-10T21:35:31.610Z,45.86
2018-08-10T21:38:00.097Z,46.10
2018-08-10T21:40:28.561Z,46.20
2018-08-10T21:42:57.177Z,45.98
2018-08-10T21:45:25.681Z,46.58
2018-08-10T21:47:54.105Z,46.61
2018-08-10T21:50:23.282Z,46.43
2018-08-10T21:52:51.753Z,46.45
2018-08-10T21:55:20.278Z,46.72
2018-08-10T21:57:49.116Z,47.09
2018-08-10T22:00:22.870Z,47.03
2018-08-10T22:02:51.690Z,47.49
2018-08-10T22:05:20.150Z,47.66
2018-08-10T22:07:48.785Z,47.80
2018-08-10T22:10:17.441Z,47.62
2018-08-10T22:12:48.102Z,47.79
2018-08-10T22:15:22.406Z,48.12
2018-08-10T22:17:56.061Z,48.43
2018-08-10T22:20:24.894Z,48.84
2018-08-10T22:22:53.353Z,48.68
2018-08-10T22:25:21.777Z,49.00
2018-08-10T22:27:50.530Z,49.18
2018-08-10T22:30:19.162Z,49.19
2018-08-10T22:32:47.633Z,49.74
2018-08-10T22:35:16.299Z,49.78
2018-08-10T22:37:44.746Z,49.88
2018-08-10T22:40:13.208Z,49.78
2018-08-10T22:42:41.694Z,49.57
2018-08-10T22:45:10.183Z,50.08
2018-08-10T22:47:38.663Z,50.27
2018-08-10T22:50:08.094Z,50.36
2018-08-10T22:52:37.308Z,50.28
2018-08-10T22:55:05.992Z,50.21
2018-08-10T22:57:34.844Z,50.70
2018-08-10T23:00:04.183Z,50.91
2018-08-10T23:02:32.653Z,50.58
2018-08-10T23:05:01.556Z,50.96
2018-08-10T23:07:30.093Z,51.22
2018-08-10T23:09:58.537Z,51.01
2018-08-10T23:12:27.269Z,50.91
2018-08-10T23:14:55.742Z,50.95
2018-08-10T23:17:24.234Z,50.93
2018-08-10T23:19:52.803Z,51.53
2018-08-10T23:22:21.261Z,51.29
2018-08-10T23:24:49.861Z,51.83
2018-08-10T23:27:18.357Z,51.94
2018-08-10T23:29:46.957Z,51.93
2018-08-10T23:32:15.463Z,51.70
2018-08-10T23:34:44.082Z,52.23
2018-08-10T23:37:12.690Z,52.43
2018-08-10T23:39:41.192Z,52.72
2018-08-10T23:42:09.865Z,52.96
2018-08-10T23:44:38.313Z,52.82
2018-08-10T23:47:06.837Z,52.86
2018-08-10T23:49:35.720Z,53.21
2018-08-10T23:52:04.235Z,52.97
2018-08-10T23:54:32.837Z,53.05
2018-08-10T23:57:02.272Z,53.31
2018-08-10T23:59:30.957Z,53.40
